Merced Regional Macready Field
KMCE : now visible

Airfield :











YOU CAN JOIN US ON...

 
LOGIN :

Register | Disclaimer

   EN    FR    IT 

 









Legend :    VFR   Marginal VFR   IFR   Intensive IFR   Very Intensive IFR
Visi :
Ceiling :
>= 8 km
>= 3000ft
5 to 8 km
1000 to 3000 ft
1500m to 5 km
500 to 1000 ft
800 to 1500m
200 to 500 ft
< 800m
< 200 ft
Symbols :   Thunderstorms  Fog  Heavy snow  Heavy precipitations  Wind > 20 kt






- Airport Elevation : 155 ft
- IATA code : MCE


KMCE - Merced Regional Macready Field

CURRENT METAR :
  • 041453Z AUTO 00000KT 10SM CLR 07/04 A2992 RMK AO2 SLP130 T00670044 53002

EXPIRED METARs :
  • 041353Z AUTO 32003KT 10SM CLR 04/02 A2991 RMK AO2 SLP128 T00440022
  • 041253Z AUTO 00000KT 10SM CLR 05/02 A2991 RMK AO2 SLP129 T00500022

TAF KMCE
Valid from the 04 at 12:00 until the 05 at 12:00 UTC


041140Z 0412/0512 VRB04KT P6SM SKC
FM042000 33008KT P6SM FEW030 SCT050 OVC250
FM050000 33008KT P6SM VCSH SCT030 OVC050
PROB30 0500/0506 6SM -RA OVC030
FM050600 14006KT P6SM -RA OVC030



MET'MAP, your aeronautical weather chart ! - Copyright ORBIFLY December 2007 - Disclaimer

ORBIFLY MET'MAP TEAM :

Programming & Development : Alexandra Zaïnal
Concept & original design : Baudouin d'Aumeries
Assistance for programming : Marc-Olivier Méhu
Technical & hardware support : Manuel Goepfert

Contact : metmap@orbifly.com




SOURCES & CREDITS :

   NOAA       Earth
Advisory